sensor_id;sensor_type;location;lat;lon;timestamp;P1;durP1;ratioP1;P2;durP2;ratioP2
36283;SDS011;56085;48.910;9.478;2023-05-07T11:58:56;4.88;;;2.00;;
36283;SDS011;56085;48.910;9.478;2023-05-07T12:03:47;1.43;;;1.10;;
36283;SDS011;56085;48.910;9.478;2023-05-07T12:06:13;1.42;;;1.00;;
36283;SDS011;56085;48.910;9.478;2023-05-07T12:08:40;1.65;;;1.13;;
36283;SDS011;56085;48.910;9.478;2023-05-07T12:11:07;2.05;;;1.10;;
36283;SDS011;56085;48.910;9.478;2023-05-07T12:13:34;3.15;;;1.48;;
36283;SDS011;56085;48.910;9.478;2023-05-07T12:16:00;3.85;;;1.25;;
36283;SDS011;56085;48.910;9.478;2023-05-07T12:18:28;2.83;;;1.50;;
36283;SDS011;56085;48.910;9.478;2023-05-07T12:20:53;2.28;;;1.10;;
36283;SDS011;56085;48.910;9.478;2023-05-07T12:23:19;1.30;;;1.05;;
36283;SDS011;56085;48.910;9.478;2023-05-07T12:25:45;1.15;;;1.05;;
36283;SDS011;56085;48.910;9.478;2023-05-07T12:28:13;5.53;;;1.60;;
36283;SDS011;56085;48.910;9.478;2023-05-07T12:30:43;4.63;;;1.25;;
36283;SDS011;56085;48.910;9.478;2023-05-07T12:33:10;2.78;;;1.35;;
36283;SDS011;56085;48.910;9.478;2023-05-07T12:35:37;2.15;;;1.30;;
36283;SDS011;56085;48.910;9.478;2023-05-07T12:38:07;2.92;;;1.40;;
36283;SDS011;56085;48.910;9.478;2023-05-07T12:40:39;2.28;;;1.20;;
36283;SDS011;56085;48.910;9.478;2023-05-07T12:43:18;1.95;;;1.55;;
36283;SDS011;56085;48.910;9.478;2023-05-07T12:45:44;2.10;;;1.40;;
36283;SDS011;56085;48.910;9.478;2023-05-07T12:48:12;2.55;;;1.55;;
36283;SDS011;56085;48.910;9.478;2023-05-07T12:50:37;5.15;;;1.70;;
36283;SDS011;56085;48.910;9.478;2023-05-07T12:53:03;3.88;;;1.67;;
36283;SDS011;56085;48.910;9.478;2023-05-07T12:55:31;2.55;;;1.33;;
36283;SDS011;56085;48.910;9.478;2023-05-07T12:57:56;3.30;;;1.30;;
36283;SDS011;56085;48.910;9.478;2023-05-07T13:03:04;3.00;;;1.52;;
36283;SDS011;56085;48.910;9.478;2023-05-07T13:05:31;2.75;;;1.40;;
36283;SDS011;56085;48.910;9.478;2023-05-07T13:07:57;4.72;;;1.40;;
36283;SDS011;56085;48.910;9.478;2023-05-07T13:10:23;2.38;;;1.33;;
36283;SDS011;56085;48.910;9.478;2023-05-07T13:12:49;7.53;;;3.13;;
36283;SDS011;56085;48.910;9.478;2023-05-07T13:15:15;11.98;;;7.00;;
36283;SDS011;56085;48.910;9.478;2023-05-07T13:17:41;11.23;;;8.00;;
36283;SDS011;56085;48.910;9.478;2023-05-07T13:20:06;12.30;;;7.55;;
36283;SDS011;56085;48.910;9.478;2023-05-07T13:22:33;14.80;;;7.53;;
36283;SDS011;56085;48.910;9.478;2023-05-07T13:24:58;6.38;;;2.83;;
36283;SDS011;56085;48.910;9.478;2023-05-07T13:27:23;7.33;;;4.23;;
36283;SDS011;56085;48.910;9.478;2023-05-07T13:29:49;3.17;;;1.95;;
36283;SDS011;56085;48.910;9.478;2023-05-07T13:32:14;1.53;;;1.20;;
36283;SDS011;56085;48.910;9.478;2023-05-07T13:34:39;5.80;;;1.45;;
36283;SDS011;56085;48.910;9.478;2023-05-07T13:37:04;4.67;;;1.40;;
36283;SDS011;56085;48.910;9.478;2023-05-07T13:39:29;3.38;;;1.70;;
36283;SDS011;56085;48.910;9.478;2023-05-07T13:41:55;2.97;;;1.77;;
36283;SDS011;56085;48.910;9.478;2023-05-07T13:44:20;4.20;;;1.90;;
36283;SDS011;56085;48.910;9.478;2023-05-07T13:46:45;3.13;;;1.97;;
36283;SDS011;56085;48.910;9.478;2023-05-07T13:49:11;5.15;;;1.48;;
36283;SDS011;56085;48.910;9.478;2023-05-07T13:51:37;5.05;;;1.73;;
36283;SDS011;56085;48.910;9.478;2023-05-07T13:54:02;2.88;;;1.40;;
36283;SDS011;56085;48.910;9.478;2023-05-07T13:56:28;3.75;;;1.77;;
36283;SDS011;56085;48.910;9.478;2023-05-07T13:58:55;3.45;;;1.60;;
36283;SDS011;56085;48.910;9.478;2023-05-07T14:01:21;3.13;;;1.70;;
36283;SDS011;56085;48.910;9.478;2023-05-07T14:03:46;5.13;;;2.00;;
36283;SDS011;56085;48.910;9.478;2023-05-07T14:06:11;9.07;;;5.35;;
36283;SDS011;56085;48.910;9.478;2023-05-07T14:08:36;10.18;;;4.13;;
36283;SDS011;56085;48.910;9.478;2023-05-07T14:11:02;6.15;;;2.78;;
36283;SDS011;56085;48.910;9.478;2023-05-07T14:13:27;4.65;;;2.25;;
36283;SDS011;56085;48.910;9.478;2023-05-07T14:15:52;2.88;;;2.38;;
36283;SDS011;56085;48.910;9.478;2023-05-07T14:18:17;3.97;;;1.70;;
36283;SDS011;56085;48.910;9.478;2023-05-07T14:20:43;4.55;;;2.00;;
36283;SDS011;56085;48.910;9.478;2023-05-07T14:23:08;3.33;;;1.98;;
36283;SDS011;56085;48.910;9.478;2023-05-07T14:25:34;3.78;;;2.20;;
36283;SDS011;56085;48.910;9.478;2023-05-07T14:27:59;4.90;;;2.17;;
36283;SDS011;56085;48.910;9.478;2023-05-07T14:30:25;2.70;;;2.03;;
36283;SDS011;56085;48.910;9.478;2023-05-07T14:32:50;3.22;;;2.00;;
36283;SDS011;56085;48.910;9.478;2023-05-07T14:35:15;2.72;;;2.05;;
36283;SDS011;56085;48.910;9.478;2023-05-07T14:37:41;3.33;;;1.85;;
36283;SDS011;56085;48.910;9.478;2023-05-07T14:40:07;4.03;;;1.98;;
36283;SDS011;56085;48.910;9.478;2023-05-07T14:42:32;5.90;;;4.65;;
36283;SDS011;56085;48.910;9.478;2023-05-07T14:44:58;7.22;;;3.10;;
36283;SDS011;56085;48.910;9.478;2023-05-07T14:47:23;5.72;;;2.83;;
36283;SDS011;56085;48.910;9.478;2023-05-07T14:49:48;5.35;;;1.95;;
36283;SDS011;56085;48.910;9.478;2023-05-07T14:52:13;4.90;;;2.10;;
36283;SDS011;56085;48.910;9.478;2023-05-07T14:54:39;3.92;;;1.85;;
36283;SDS011;56085;48.910;9.478;2023-05-07T14:57:04;4.13;;;1.42;;
36283;SDS011;56085;48.910;9.478;2023-05-07T14:59:30;3.53;;;1.70;;
36283;SDS011;56085;48.910;9.478;2023-05-07T15:01:57;2.50;;;1.50;;
36283;SDS011;56085;48.910;9.478;2023-05-07T15:04:23;2.55;;;1.50;;
36283;SDS011;56085;48.910;9.478;2023-05-07T15:06:48;6.28;;;1.60;;
36283;SDS011;56085;48.910;9.478;2023-05-07T15:09:14;4.18;;;1.60;;
36283;SDS011;56085;48.910;9.478;2023-05-07T15:11:39;5.60;;;1.70;;
36283;SDS011;56085;48.910;9.478;2023-05-07T15:14:05;6.18;;;1.98;;
36283;SDS011;56085;48.910;9.478;2023-05-07T15:16:30;3.20;;;1.83;;
36283;SDS011;56085;48.910;9.478;2023-05-07T15:18:56;4.55;;;1.95;;
36283;SDS011;56085;48.910;9.478;2023-05-07T15:21:21;2.08;;;1.42;;
36283;SDS011;56085;48.910;9.478;2023-05-07T15:23:47;3.05;;;1.75;;
36283;SDS011;56085;48.910;9.478;2023-05-07T15:26:12;4.10;;;1.67;;
36283;SDS011;56085;48.910;9.478;2023-05-07T15:28:37;2.17;;;1.20;;
36283;SDS011;56085;48.910;9.478;2023-05-07T15:31:04;1.73;;;1.10;;
36283;SDS011;56085;48.910;9.478;2023-05-07T15:33:30;4.10;;;1.85;;
36283;SDS011;56085;48.910;9.478;2023-05-07T15:35:56;4.30;;;1.92;;
36283;SDS011;56085;48.910;9.478;2023-05-07T15:38:23;3.92;;;1.50;;
36283;SDS011;56085;48.910;9.478;2023-05-07T15:40:49;4.75;;;1.63;;
36283;SDS011;56085;48.910;9.478;2023-05-07T15:43:15;7.20;;;2.03;;
36283;SDS011;56085;48.910;9.478;2023-05-07T15:45:40;7.32;;;2.90;;
36283;SDS011;56085;48.910;9.478;2023-05-07T15:48:07;4.60;;;2.85;;
36283;SDS011;56085;48.910;9.478;2023-05-07T15:50:33;8.90;;;4.90;;
36283;SDS011;56085;48.910;9.478;2023-05-07T15:52:58;3.72;;;2.50;;
36283;SDS011;56085;48.910;9.478;2023-05-07T15:55:23;4.28;;;2.70;;
36283;SDS011;56085;48.910;9.478;2023-05-07T15:57:48;4.15;;;2.72;;
36283;SDS011;56085;48.910;9.478;2023-05-07T16:00:14;6.80;;;2.30;;
36283;SDS011;56085;48.910;9.478;2023-05-07T16:02:41;4.22;;;1.80;;
36283;SDS011;56085;48.910;9.478;2023-05-07T16:05:06;4.53;;;1.88;;
36283;SDS011;56085;48.910;9.478;2023-05-07T16:07:36;4.90;;;2.10;;
36283;SDS011;56085;48.910;9.478;2023-05-07T16:10:02;2.90;;;1.80;;
36283;SDS011;56085;48.910;9.478;2023-05-07T16:12:28;3.42;;;1.75;;
36283;SDS011;56085;48.910;9.478;2023-05-07T16:14:54;4.03;;;2.03;;
36283;SDS011;56085;48.910;9.478;2023-05-07T16:17:19;3.20;;;1.98;;
36283;SDS011;56085;48.910;9.478;2023-05-07T16:19:44;4.53;;;1.95;;
36283;SDS011;56085;48.910;9.478;2023-05-07T16:22:10;3.90;;;1.90;;
36283;SDS011;56085;48.910;9.478;2023-05-07T16:24:35;3.67;;;1.65;;
36283;SDS011;56085;48.910;9.478;2023-05-07T16:27:00;3.45;;;2.22;;
36283;SDS011;56085;48.910;9.478;2023-05-07T16:29:25;5.43;;;2.25;;
36283;SDS011;56085;48.910;9.478;2023-05-07T16:31:52;3.67;;;1.92;;
36283;SDS011;56085;48.910;9.478;2023-05-07T16:34:17;3.92;;;2.67;;
36283;SDS011;56085;48.910;9.478;2023-05-07T16:36:43;3.88;;;2.28;;
36283;SDS011;56085;48.910;9.478;2023-05-07T16:39:08;3.72;;;2.15;;
36283;SDS011;56085;48.910;9.478;2023-05-07T16:41:33;4.05;;;2.00;;
36283;SDS011;56085;48.910;9.478;2023-05-07T16:43:58;5.18;;;2.28;;
36283;SDS011;56085;48.910;9.478;2023-05-07T16:46:23;6.25;;;3.17;;
36283;SDS011;56085;48.910;9.478;2023-05-07T16:48:49;3.25;;;2.22;;
36283;SDS011;56085;48.910;9.478;2023-05-07T16:51:14;4.80;;;2.92;;
36283;SDS011;56085;48.910;9.478;2023-05-07T16:53:39;5.03;;;2.17;;
36283;SDS011;56085;48.910;9.478;2023-05-07T16:56:05;5.03;;;2.50;;
36283;SDS011;56085;48.910;9.478;2023-05-07T16:58:30;3.78;;;2.08;;
36283;SDS011;56085;48.910;9.478;2023-05-07T17:00:57;4.63;;;1.70;;
36283;SDS011;56085;48.910;9.478;2023-05-07T17:03:23;3.95;;;2.58;;
36283;SDS011;56085;48.910;9.478;2023-05-07T17:05:48;4.78;;;2.72;;
36283;SDS011;56085;48.910;9.478;2023-05-07T17:08:13;5.18;;;2.80;;
36283;SDS011;56085;48.910;9.478;2023-05-07T17:10:39;6.43;;;2.80;;
36283;SDS011;56085;48.910;9.478;2023-05-07T17:13:04;5.15;;;2.67;;
36283;SDS011;56085;48.910;9.478;2023-05-07T17:15:30;8.35;;;3.03;;
36283;SDS011;56085;48.910;9.478;2023-05-07T17:17:55;4.13;;;2.08;;
36283;SDS011;56085;48.910;9.478;2023-05-07T17:20:20;6.05;;;2.28;;
36283;SDS011;56085;48.910;9.478;2023-05-07T17:22:46;5.10;;;2.75;;
36283;SDS011;56085;48.910;9.478;2023-05-07T17:25:11;6.05;;;2.80;;
36283;SDS011;56085;48.910;9.478;2023-05-07T17:27:36;5.72;;;2.28;;
36283;SDS011;56085;48.910;9.478;2023-05-07T17:30:02;4.93;;;2.60;;
36283;SDS011;56085;48.910;9.478;2023-05-07T17:32:27;3.17;;;2.00;;
36283;SDS011;56085;48.910;9.478;2023-05-07T17:34:53;3.88;;;2.08;;
36283;SDS011;56085;48.910;9.478;2023-05-07T17:37:19;2.70;;;1.40;;
36283;SDS011;56085;48.910;9.478;2023-05-07T17:39:44;3.75;;;1.83;;
36283;SDS011;56085;48.910;9.478;2023-05-07T17:42:10;4.70;;;1.67;;
36283;SDS011;56085;48.910;9.478;2023-05-07T17:44:35;3.05;;;1.65;;
36283;SDS011;56085;48.910;9.478;2023-05-07T17:47:00;3.75;;;1.70;;
36283;SDS011;56085;48.910;9.478;2023-05-07T17:49:26;2.88;;;1.95;;
36283;SDS011;56085;48.910;9.478;2023-05-07T17:51:51;2.95;;;1.70;;
36283;SDS011;56085;48.910;9.478;2023-05-07T17:54:17;3.72;;;1.92;;
36283;SDS011;56085;48.910;9.478;2023-05-07T17:56:42;3.20;;;1.73;;
36283;SDS011;56085;48.910;9.478;2023-05-07T17:59:07;4.95;;;2.10;;
36283;SDS011;56085;48.910;9.478;2023-05-07T18:01:32;2.65;;;1.70;;
36283;SDS011;56085;48.910;9.478;2023-05-07T18:03:58;3.90;;;2.30;;
36283;SDS011;56085;48.910;9.478;2023-05-07T18:06:24;5.13;;;3.70;;
36283;SDS011;56085;48.910;9.478;2023-05-07T18:08:49;7.07;;;4.25;;
36283;SDS011;56085;48.910;9.478;2023-05-07T18:11:15;6.13;;;3.47;;
36283;SDS011;56085;48.910;9.478;2023-05-07T18:13:40;3.83;;;2.38;;
36283;SDS011;56085;48.910;9.478;2023-05-07T18:16:05;2.65;;;2.15;;
36283;SDS011;56085;48.910;9.478;2023-05-07T18:18:31;7.32;;;2.38;;
36283;SDS011;56085;48.910;9.478;2023-05-07T18:20:59;4.90;;;2.85;;
36283;SDS011;56085;48.910;9.478;2023-05-07T18:23:25;3.45;;;2.75;;
36283;SDS011;56085;48.910;9.478;2023-05-07T18:25:50;6.53;;;2.28;;
36283;SDS011;56085;48.910;9.478;2023-05-07T18:28:15;3.65;;;2.03;;
36283;SDS011;56085;48.910;9.478;2023-05-07T18:30:41;3.20;;;2.17;;
36283;SDS011;56085;48.910;9.478;2023-05-07T18:33:06;6.85;;;3.97;;
36283;SDS011;56085;48.910;9.478;2023-05-07T18:35:31;7.65;;;4.70;;
36283;SDS011;56085;48.910;9.478;2023-05-07T18:37:57;8.95;;;4.10;;
36283;SDS011;56085;48.910;9.478;2023-05-07T18:40:22;5.05;;;3.28;;
36283;SDS011;56085;48.910;9.478;2023-05-07T18:42:47;5.80;;;3.58;;
36283;SDS011;56085;48.910;9.478;2023-05-07T18:45:13;4.85;;;2.70;;
36283;SDS011;56085;48.910;9.478;2023-05-07T18:47:38;10.65;;;2.30;;
36283;SDS011;56085;48.910;9.478;2023-05-07T18:50:04;3.83;;;2.00;;
36283;SDS011;56085;48.910;9.478;2023-05-07T18:52:29;3.80;;;1.80;;
36283;SDS011;56085;48.910;9.478;2023-05-07T18:54:55;4.13;;;2.00;;
36283;SDS011;56085;48.910;9.478;2023-05-07T18:57:20;3.45;;;1.92;;
36283;SDS011;56085;48.910;9.478;2023-05-07T18:59:45;3.45;;;1.77;;
36283;SDS011;56085;48.910;9.478;2023-05-07T19:02:10;3.85;;;1.70;;
36283;SDS011;56085;48.910;9.478;2023-05-07T19:04:38;4.70;;;1.88;;
36283;SDS011;56085;48.910;9.478;2023-05-07T19:07:03;4.45;;;1.90;;
36283;SDS011;56085;48.910;9.478;2023-05-07T19:09:29;3.28;;;1.80;;
36283;SDS011;56085;48.910;9.478;2023-05-07T19:11:54;3.70;;;2.00;;
36283;SDS011;56085;48.910;9.478;2023-05-07T19:14:20;2.90;;;1.58;;
36283;SDS011;56085;48.910;9.478;2023-05-07T19:16:45;3.30;;;2.28;;
36283;SDS011;56085;48.910;9.478;2023-05-07T19:19:10;3.92;;;2.45;;
36283;SDS011;56085;48.910;9.478;2023-05-07T19:21:36;6.38;;;2.47;;
36283;SDS011;56085;48.910;9.478;2023-05-07T19:24:01;4.35;;;2.33;;
36283;SDS011;56085;48.910;9.478;2023-05-07T19:26:26;5.53;;;2.20;;
36283;SDS011;56085;48.910;9.478;2023-05-07T19:28:52;3.20;;;2.20;;
36283;SDS011;56085;48.910;9.478;2023-05-07T19:31:20;3.92;;;2.33;;
36283;SDS011;56085;48.910;9.478;2023-05-07T19:33:46;3.70;;;2.40;;
36283;SDS011;56085;48.910;9.478;2023-05-07T19:36:12;3.95;;;2.40;;
36283;SDS011;56085;48.910;9.478;2023-05-07T19:38:37;5.60;;;2.30;;
36283;SDS011;56085;48.910;9.478;2023-05-07T19:41:02;9.02;;;3.17;;
36283;SDS011;56085;48.910;9.478;2023-05-07T19:43:29;4.53;;;2.85;;
36283;SDS011;56085;48.910;9.478;2023-05-07T19:45:59;3.30;;;2.33;;
36283;SDS011;56085;48.910;9.478;2023-05-07T19:48:25;3.97;;;2.88;;
36283;SDS011;56085;48.910;9.478;2023-05-07T19:50:50;6.55;;;2.65;;
36283;SDS011;56085;48.910;9.478;2023-05-07T19:53:16;4.05;;;2.30;;
36283;SDS011;56085;48.910;9.478;2023-05-07T19:55:41;4.47;;;2.20;;
36283;SDS011;56085;48.910;9.478;2023-05-07T19:58:06;3.42;;;2.25;;
36283;SDS011;56085;48.910;9.478;2023-05-07T20:00:32;2.70;;;1.77;;
36283;SDS011;56085;48.910;9.478;2023-05-07T20:02:57;2.08;;;1.45;;
36283;SDS011;56085;48.910;9.478;2023-05-07T20:05:23;5.30;;;2.10;;
36283;SDS011;56085;48.910;9.478;2023-05-07T20:07:50;2.97;;;1.63;;
36283;SDS011;56085;48.910;9.478;2023-05-07T20:10:15;2.08;;;1.50;;
36283;SDS011;56085;48.910;9.478;2023-05-07T20:12:40;2.80;;;1.33;;
36283;SDS011;56085;48.910;9.478;2023-05-07T20:15:06;2.97;;;1.60;;
36283;SDS011;56085;48.910;9.478;2023-05-07T20:17:32;4.45;;;1.75;;
36283;SDS011;56085;48.910;9.478;2023-05-07T20:19:57;1.70;;;1.30;;
36283;SDS011;56085;48.910;9.478;2023-05-07T20:22:22;6.72;;;1.88;;
36283;SDS011;56085;48.910;9.478;2023-05-07T20:24:47;4.22;;;1.95;;
36283;SDS011;56085;48.910;9.478;2023-05-07T20:27:13;3.55;;;1.83;;
36283;SDS011;56085;48.910;9.478;2023-05-07T20:29:39;3.17;;;2.00;;
36283;SDS011;56085;48.910;9.478;2023-05-07T20:32:05;4.28;;;2.58;;
36283;SDS011;56085;48.910;9.478;2023-05-07T20:34:30;4.68;;;2.85;;
36283;SDS011;56085;48.910;9.478;2023-05-07T20:36:56;7.38;;;2.80;;
36283;SDS011;56085;48.910;9.478;2023-05-07T20:39:21;4.20;;;3.22;;
36283;SDS011;56085;48.910;9.478;2023-05-07T20:41:46;7.88;;;3.45;;
36283;SDS011;56085;48.910;9.478;2023-05-07T20:44:11;3.40;;;2.20;;
36283;SDS011;56085;48.910;9.478;2023-05-07T20:46:37;4.85;;;2.30;;
36283;SDS011;56085;48.910;9.478;2023-05-07T20:49:02;3.67;;;2.20;;
36283;SDS011;56085;48.910;9.478;2023-05-07T20:51:28;3.33;;;1.90;;
36283;SDS011;56085;48.910;9.478;2023-05-07T20:53:54;5.55;;;2.13;;
36283;SDS011;56085;48.910;9.478;2023-05-07T20:56:20;4.43;;;1.92;;
36283;SDS011;56085;48.910;9.478;2023-05-07T20:58:46;2.50;;;1.90;;
36283;SDS011;56085;48.910;9.478;2023-05-07T21:01:11;2.72;;;1.75;;
36283;SDS011;56085;48.910;9.478;2023-05-07T21:03:36;3.05;;;1.67;;
36283;SDS011;56085;48.910;9.478;2023-05-07T21:06:02;4.63;;;3.08;;
36283;SDS011;56085;48.910;9.478;2023-05-07T21:08:28;4.70;;;2.42;;
36283;SDS011;56085;48.910;9.478;2023-05-07T21:10:53;3.13;;;2.20;;
36283;SDS011;56085;48.910;9.478;2023-05-07T21:13:19;3.35;;;2.25;;
36283;SDS011;56085;48.910;9.478;2023-05-07T21:15:44;2.72;;;2.10;;
36283;SDS011;56085;48.910;9.478;2023-05-07T21:18:10;4.05;;;2.60;;
36283;SDS011;56085;48.910;9.478;2023-05-07T21:20:36;3.70;;;2.80;;
36283;SDS011;56085;48.910;9.478;2023-05-07T21:23:01;4.40;;;2.63;;
36283;SDS011;56085;48.910;9.478;2023-05-07T21:25:27;6.72;;;2.60;;
36283;SDS011;56085;48.910;9.478;2023-05-07T21:27:52;3.58;;;2.55;;
36283;SDS011;56085;48.910;9.478;2023-05-07T21:30:18;3.75;;;2.33;;
36283;SDS011;56085;48.910;9.478;2023-05-07T21:32:43;4.65;;;2.88;;
36283;SDS011;56085;48.910;9.478;2023-05-07T21:35:09;5.32;;;2.95;;
36283;SDS011;56085;48.910;9.478;2023-05-07T21:37:34;4.22;;;3.17;;
36283;SDS011;56085;48.910;9.478;2023-05-07T21:40:00;5.40;;;2.80;;
36283;SDS011;56085;48.910;9.478;2023-05-07T21:42:25;3.33;;;2.58;;
36283;SDS011;56085;48.910;9.478;2023-05-07T21:44:51;3.50;;;2.70;;
36283;SDS011;56085;48.910;9.478;2023-05-07T21:47:16;4.75;;;3.15;;
36283;SDS011;56085;48.910;9.478;2023-05-07T21:49:41;5.45;;;3.15;;
36283;SDS011;56085;48.910;9.478;2023-05-07T21:52:13;5.03;;;2.90;;
36283;SDS011;56085;48.910;9.478;2023-05-07T21:54:40;3.95;;;2.42;;
36283;SDS011;56085;48.910;9.478;2023-05-07T21:57:05;4.22;;;3.25;;
36283;SDS011;56085;48.910;9.478;2023-05-07T21:59:31;7.80;;;3.80;;
36283;SDS011;56085;48.910;9.478;2023-05-07T22:01:58;4.30;;;3.13;;
36283;SDS011;56085;48.910;9.478;2023-05-07T22:04:23;4.35;;;3.20;;
36283;SDS011;56085;48.910;9.478;2023-05-07T22:06:49;3.55;;;2.78;;
36283;SDS011;56085;48.910;9.478;2023-05-07T22:09:14;4.40;;;3.63;;
36283;SDS011;56085;48.910;9.478;2023-05-07T22:11:39;4.13;;;3.05;;
36283;SDS011;56085;48.910;9.478;2023-05-07T22:14:05;4.22;;;3.17;;
36283;SDS011;56085;48.910;9.478;2023-05-07T22:16:30;5.45;;;3.25;;
36283;SDS011;56085;48.910;9.478;2023-05-07T22:18:55;6.22;;;3.53;;
36283;SDS011;56085;48.910;9.478;2023-05-07T22:21:20;4.40;;;3.25;;
36283;SDS011;56085;48.910;9.478;2023-05-07T22:23:46;6.85;;;3.15;;
36283;SDS011;56085;48.910;9.478;2023-05-07T22:26:12;5.65;;;3.08;;
36283;SDS011;56085;48.910;9.478;2023-05-07T22:28:38;6.47;;;3.35;;
36283;SDS011;56085;48.910;9.478;2023-05-07T22:31:03;4.05;;;2.92;;
36283;SDS011;56085;48.910;9.478;2023-05-07T22:33:29;5.40;;;3.38;;
36283;SDS011;56085;48.910;9.478;2023-05-07T22:35:54;4.95;;;3.28;;
36283;SDS011;56085;48.910;9.478;2023-05-07T22:38:19;4.45;;;3.00;;
36283;SDS011;56085;48.910;9.478;2023-05-07T22:40:45;5.20;;;3.20;;
36283;SDS011;56085;48.910;9.478;2023-05-07T22:43:10;4.10;;;3.00;;
36283;SDS011;56085;48.910;9.478;2023-05-07T22:45:35;5.97;;;3.08;;
36283;SDS011;56085;48.910;9.478;2023-05-07T22:48:00;4.90;;;3.25;;
36283;SDS011;56085;48.910;9.478;2023-05-07T22:50:26;5.00;;;3.25;;
36283;SDS011;56085;48.910;9.478;2023-05-07T22:52:51;4.68;;;3.67;;
36283;SDS011;56085;48.910;9.478;2023-05-07T22:55:16;4.82;;;3.13;;
36283;SDS011;56085;48.910;9.478;2023-05-07T22:57:42;4.78;;;3.80;;
36283;SDS011;56085;48.910;9.478;2023-05-07T23:00:07;4.15;;;3.35;;
36283;SDS011;56085;48.910;9.478;2023-05-07T23:02:33;4.35;;;3.30;;
36283;SDS011;56085;48.910;9.478;2023-05-07T23:04:59;5.05;;;3.88;;
36283;SDS011;56085;48.910;9.478;2023-05-07T23:07:25;5.07;;;3.80;;
36283;SDS011;56085;48.910;9.478;2023-05-07T23:09:51;5.47;;;3.85;;
36283;SDS011;56085;48.910;9.478;2023-05-07T23:12:16;5.72;;;4.05;;
36283;SDS011;56085;48.910;9.478;2023-05-07T23:14:41;5.43;;;3.65;;
36283;SDS011;56085;48.910;9.478;2023-05-07T23:17:07;4.88;;;3.70;;
36283;SDS011;56085;48.910;9.478;2023-05-07T23:19:32;5.65;;;3.53;;
36283;SDS011;56085;48.910;9.478;2023-05-07T23:21:57;5.10;;;3.33;;
36283;SDS011;56085;48.910;9.478;2023-05-07T23:24:23;5.05;;;3.42;;
36283;SDS011;56085;48.910;9.478;2023-05-07T23:26:48;5.25;;;3.22;;
36283;SDS011;56085;48.910;9.478;2023-05-07T23:29:13;5.05;;;3.03;;
36283;SDS011;56085;48.910;9.478;2023-05-07T23:31:38;4.55;;;3.33;;
36283;SDS011;56085;48.910;9.478;2023-05-07T23:34:04;5.25;;;3.08;;
36283;SDS011;56085;48.910;9.478;2023-05-07T23:36:29;5.82;;;4.30;;
36283;SDS011;56085;48.910;9.478;2023-05-07T23:38:56;6.30;;;4.53;;
36283;SDS011;56085;48.910;9.478;2023-05-07T23:41:21;5.32;;;4.38;;
36283;SDS011;56085;48.910;9.478;2023-05-07T23:43:46;4.88;;;3.88;;
36283;SDS011;56085;48.910;9.478;2023-05-07T23:46:12;4.05;;;3.40;;
36283;SDS011;56085;48.910;9.478;2023-05-07T23:48:37;6.63;;;4.20;;
36283;SDS011;56085;48.910;9.478;2023-05-07T23:51:02;6.60;;;4.05;;
36283;SDS011;56085;48.910;9.478;2023-05-07T23:53:28;8.15;;;4.10;;
36283;SDS011;56085;48.910;9.478;2023-05-07T23:55:53;5.22;;;3.55;;
36283;SDS011;56085;48.910;9.478;2023-05-07T23:58:18;4.25;;;3.22;;
